sensor_id;sensor_type;location;lat;lon;timestamp;pressure;altitude;pressure_sealevel;temperature;humidity
46922;BME280;44039;48.336;10.454;2022-09-12T00:02:25;96104.16;;;10.96;100.00
46922;BME280;44039;48.336;10.454;2022-09-12T00:05:12;96102.50;;;10.54;100.00
46922;BME280;44039;48.336;10.454;2022-09-12T00:07:59;96100.81;;;10.53;100.00
46922;BME280;44039;48.336;10.454;2022-09-12T00:10:46;96091.69;;;10.46;100.00
46922;BME280;44039;48.336;10.454;2022-09-12T00:13:34;96093.56;;;10.44;100.00
46922;BME280;44039;48.336;10.454;2022-09-12T00:16:29;96093.94;;;10.52;100.00
46922;BME280;44039;48.336;10.454;2022-09-12T00:19:16;96090.66;;;11.17;100.00
46922;BME280;44039;48.336;10.454;2022-09-12T00:22:04;96087.00;;;11.59;100.00
46922;BME280;44039;48.336;10.454;2022-09-12T00:24:51;96078.31;;;11.58;100.00
46922;BME280;44039;48.336;10.454;2022-09-12T00:27:38;96071.50;;;11.56;100.00
46922;BME280;44039;48.336;10.454;2022-09-12T00:30:25;96082.75;;;11.83;100.00
46922;BME280;44039;48.336;10.454;2022-09-12T00:33:12;96088.09;;;11.42;100.00
46922;BME280;44039;48.336;10.454;2022-09-12T00:36:08;96081.31;;;11.39;100.00
46922;BME280;44039;48.336;10.454;2022-09-12T00:38:56;96075.13;;;11.40;100.00
46922;BME280;44039;48.336;10.454;2022-09-12T00:41:43;96079.97;;;11.72;100.00
46922;BME280;44039;48.336;10.454;2022-09-12T00:47:36;96081.56;;;10.82;100.00
46922;BME280;44039;48.336;10.454;2022-09-12T00:50:24;96077.59;;;10.48;100.00
46922;BME280;44039;48.336;10.454;2022-09-12T00:53:11;96070.00;;;10.72;100.00
46922;BME280;44039;48.336;10.454;2022-09-12T00:55:58;96067.09;;;10.77;100.00
46922;BME280;44039;48.336;10.454;2022-09-12T00:58:57;96067.94;;;10.77;100.00
46922;BME280;44039;48.336;10.454;2022-09-12T01:01:48;96072.06;;;10.94;100.00
46922;BME280;44039;48.336;10.454;2022-09-12T01:04:37;96066.88;;;10.67;100.00
46922;BME280;44039;48.336;10.454;2022-09-12T01:07:26;96062.16;;;10.45;100.00
46922;BME280;44039;48.336;10.454;2022-09-12T01:10:14;96061.88;;;10.07;100.00
46922;BME280;44039;48.336;10.454;2022-09-12T01:13:03;96065.69;;;10.16;100.00
46922;BME280;44039;48.336;10.454;2022-09-12T01:15:51;96055.66;;;10.24;100.00
46922;BME280;44039;48.336;10.454;2022-09-12T01:31:16;96049.94;;;10.46;100.00
46922;BME280;44039;48.336;10.454;2022-09-12T01:34:13;96042.00;;;10.19;100.00
46922;BME280;44039;48.336;10.454;2022-09-12T01:37:13;96046.59;;;10.01;100.00
46922;BME280;44039;48.336;10.454;2022-09-12T01:40:15;96043.06;;;9.88;100.00
46922;BME280;44039;48.336;10.454;2022-09-12T01:46:26;96038.56;;;10.04;100.00
46922;BME280;44039;48.336;10.454;2022-09-12T01:49:25;96032.84;;;10.27;100.00
46922;BME280;44039;48.336;10.454;2022-09-12T01:52:22;96029.78;;;10.48;100.00
46922;BME280;44039;48.336;10.454;2022-09-12T01:55:18;96029.84;;;10.61;100.00
46922;BME280;44039;48.336;10.454;2022-09-12T01:58:34;96019.56;;;10.16;100.00
46922;BME280;44039;48.336;10.454;2022-09-12T02:01:27;96028.44;;;9.99;100.00
46922;BME280;44039;48.336;10.454;2022-09-12T02:04:20;96019.97;;;10.24;100.00
46922;BME280;44039;48.336;10.454;2022-09-12T02:07:18;96020.84;;;10.52;100.00
46922;BME280;44039;48.336;10.454;2022-09-12T02:10:15;96013.66;;;10.55;100.00
46922;BME280;44039;48.336;10.454;2022-09-12T02:13:12;96011.13;;;10.54;100.00
46922;BME280;44039;48.336;10.454;2022-09-12T02:16:20;96014.53;;;10.69;100.00
46922;BME280;44039;48.336;10.454;2022-09-12T02:19:12;96010.19;;;9.99;100.00
46922;BME280;44039;48.336;10.454;2022-09-12T02:22:03;96005.59;;;10.03;100.00
46922;BME280;44039;48.336;10.454;2022-09-12T02:24:54;96003.28;;;10.13;100.00
46922;BME280;44039;48.336;10.454;2022-09-12T02:27:52;96000.03;;;10.09;100.00
46922;BME280;44039;48.336;10.454;2022-09-12T02:30:48;96000.97;;;10.08;100.00
46922;BME280;44039;48.336;10.454;2022-09-12T02:33:45;95999.19;;;9.80;100.00
46922;BME280;44039;48.336;10.454;2022-09-12T02:36:53;95999.03;;;9.83;100.00
46922;BME280;44039;48.336;10.454;2022-09-12T02:39:43;96009.13;;;9.31;100.00
46922;BME280;44039;48.336;10.454;2022-09-12T02:42:31;96007.09;;;9.50;100.00
46922;BME280;44039;48.336;10.454;2022-09-12T02:45:18;96001.28;;;9.75;100.00
46922;BME280;44039;48.336;10.454;2022-09-12T02:48:10;96003.41;;;9.83;100.00
46922;BME280;44039;48.336;10.454;2022-09-12T02:51:00;96001.63;;;9.69;100.00
46922;BME280;44039;48.336;10.454;2022-09-12T02:53:48;96003.09;;;9.73;100.00
46922;BME280;44039;48.336;10.454;2022-09-12T02:56:39;95992.03;;;9.69;100.00
46922;BME280;44039;48.336;10.454;2022-09-12T02:59:26;95991.13;;;9.70;100.00
46922;BME280;44039;48.336;10.454;2022-09-12T03:02:27;95988.78;;;9.66;100.00
46922;BME280;44039;48.336;10.454;2022-09-12T03:05:24;95992.72;;;9.59;100.00
46922;BME280;44039;48.336;10.454;2022-09-12T03:08:21;95994.91;;;9.79;100.00
46922;BME280;44039;48.336;10.454;2022-09-12T03:14:31;95993.25;;;9.64;100.00
46922;BME280;44039;48.336;10.454;2022-09-12T03:17:34;95996.41;;;9.55;100.00
46922;BME280;44039;48.336;10.454;2022-09-12T03:23:45;95983.38;;;9.83;100.00
46922;BME280;44039;48.336;10.454;2022-09-12T03:26:45;95996.88;;;9.61;100.00
46922;BME280;44039;48.336;10.454;2022-09-12T03:29:34;95996.31;;;9.56;100.00
46922;BME280;44039;48.336;10.454;2022-09-12T03:32:42;95992.75;;;9.43;100.00
46922;BME280;44039;48.336;10.454;2022-09-12T03:35:29;95992.59;;;9.02;100.00
46922;BME280;44039;48.336;10.454;2022-09-12T03:38:17;95996.44;;;8.80;100.00
46922;BME280;44039;48.336;10.454;2022-09-12T03:41:04;95995.78;;;8.77;100.00
46922;BME280;44039;48.336;10.454;2022-09-12T03:43:51;95996.72;;;8.76;100.00
46922;BME280;44039;48.336;10.454;2022-09-12T03:46:38;96001.34;;;9.01;100.00
46922;BME280;44039;48.336;10.454;2022-09-12T03:49:25;95989.06;;;9.03;100.00
46922;BME280;44039;48.336;10.454;2022-09-12T03:52:12;95997.38;;;9.09;100.00
46922;BME280;44039;48.336;10.454;2022-09-12T03:54:59;95991.34;;;9.23;100.00
46922;BME280;44039;48.336;10.454;2022-09-12T03:57:46;96001.97;;;8.90;100.00
46922;BME280;44039;48.336;10.454;2022-09-12T04:00:33;95993.97;;;8.93;100.00
46922;BME280;44039;48.336;10.454;2022-09-12T04:03:20;95996.81;;;8.74;100.00
46922;BME280;44039;48.336;10.454;2022-09-12T04:06:08;95995.41;;;8.99;100.00
46922;BME280;44039;48.336;10.454;2022-09-12T04:08:56;95996.00;;;8.88;100.00
46922;BME280;44039;48.336;10.454;2022-09-12T04:11:44;96000.06;;;8.78;100.00
46922;BME280;44039;48.336;10.454;2022-09-12T04:14:31;95997.81;;;9.02;100.00
46922;BME280;44039;48.336;10.454;2022-09-12T04:17:18;95989.63;;;9.38;100.00
46922;BME280;44039;48.336;10.454;2022-09-12T04:20:05;95991.91;;;9.14;100.00
46922;BME280;44039;48.336;10.454;2022-09-12T04:22:52;95990.88;;;9.16;100.00
46922;BME280;44039;48.336;10.454;2022-09-12T04:25:39;95992.50;;;9.03;100.00
46922;BME280;44039;48.336;10.454;2022-09-12T04:28:26;96000.50;;;9.00;100.00
46922;BME280;44039;48.336;10.454;2022-09-12T04:31:17;95999.41;;;9.04;100.00
46922;BME280;44039;48.336;10.454;2022-09-12T04:34:06;95999.84;;;8.97;100.00
46922;BME280;44039;48.336;10.454;2022-09-12T04:36:53;95998.22;;;9.10;100.00
46922;BME280;44039;48.336;10.454;2022-09-12T04:39:40;95995.59;;;9.10;100.00
46922;BME280;44039;48.336;10.454;2022-09-12T04:42:28;95987.38;;;9.32;100.00
46922;BME280;44039;48.336;10.454;2022-09-12T04:45:15;95985.47;;;9.19;100.00
46922;BME280;44039;48.336;10.454;2022-09-12T04:48:02;95986.59;;;9.15;100.00
46922;BME280;44039;48.336;10.454;2022-09-12T04:50:49;95986.59;;;9.15;100.00
46922;BME280;44039;48.336;10.454;2022-09-12T04:53:37;95983.81;;;9.33;100.00
46922;BME280;44039;48.336;10.454;2022-09-12T04:56:24;95980.41;;;9.46;100.00
46922;BME280;44039;48.336;10.454;2022-09-12T04:59:13;95989.06;;;9.61;100.00
46922;BME280;44039;48.336;10.454;2022-09-12T05:02:01;95990.09;;;9.44;100.00
46922;BME280;44039;48.336;10.454;2022-09-12T05:04:48;95986.63;;;9.30;100.00
46922;BME280;44039;48.336;10.454;2022-09-12T05:07:35;95988.66;;;9.25;100.00
46922;BME280;44039;48.336;10.454;2022-09-12T05:10:22;95993.16;;;9.37;100.00
46922;BME280;44039;48.336;10.454;2022-09-12T05:13:09;95989.53;;;9.54;100.00
46922;BME280;44039;48.336;10.454;2022-09-12T05:15:57;95997.53;;;9.36;100.00
46922;BME280;44039;48.336;10.454;2022-09-12T05:18:45;95998.16;;;9.40;100.00
46922;BME280;44039;48.336;10.454;2022-09-12T05:21:33;95998.81;;;9.58;100.00
46922;BME280;44039;48.336;10.454;2022-09-12T05:24:20;95997.34;;;9.68;100.00
46922;BME280;44039;48.336;10.454;2022-09-12T05:27:07;96001.53;;;9.70;100.00
46922;BME280;44039;48.336;10.454;2022-09-12T05:29:54;96009.16;;;9.73;100.00
46922;BME280;44039;48.336;10.454;2022-09-12T05:32:41;96016.50;;;9.81;100.00
46922;BME280;44039;48.336;10.454;2022-09-12T05:35:28;96018.31;;;9.66;100.00
46922;BME280;44039;48.336;10.454;2022-09-12T05:38:15;96016.16;;;9.87;100.00
46922;BME280;44039;48.336;10.454;2022-09-12T05:41:10;96016.81;;;9.77;100.00
46922;BME280;44039;48.336;10.454;2022-09-12T05:44:05;96016.16;;;9.73;100.00
46922;BME280;44039;48.336;10.454;2022-09-12T05:46:52;96009.72;;;9.93;100.00
46922;BME280;44039;48.336;10.454;2022-09-12T05:49:39;96006.66;;;10.00;100.00
46922;BME280;44039;48.336;10.454;2022-09-12T05:52:26;96011.75;;;10.02;100.00
46922;BME280;44039;48.336;10.454;2022-09-12T05:55:13;96018.59;;;10.05;100.00
46922;BME280;44039;48.336;10.454;2022-09-12T05:58:00;96021.63;;;10.40;100.00
46922;BME280;44039;48.336;10.454;2022-09-12T06:00:47;96017.94;;;10.83;100.00
46922;BME280;44039;48.336;10.454;2022-09-12T06:03:39;96014.78;;;10.51;100.00
46922;BME280;44039;48.336;10.454;2022-09-12T06:06:28;96022.28;;;10.70;100.00
46922;BME280;44039;48.336;10.454;2022-09-12T06:09:16;96022.88;;;11.01;100.00
46922;BME280;44039;48.336;10.454;2022-09-12T06:12:03;96019.59;;;10.57;100.00
46922;BME280;44039;48.336;10.454;2022-09-12T06:14:51;96009.09;;;10.99;100.00
46922;BME280;44039;48.336;10.454;2022-09-12T06:17:38;96005.50;;;11.65;100.00
46922;BME280;44039;48.336;10.454;2022-09-12T06:20:25;96003.94;;;12.01;100.00
46922;BME280;44039;48.336;10.454;2022-09-12T06:23:12;96010.16;;;12.36;100.00
46922;BME280;44039;48.336;10.454;2022-09-12T06:25:59;96001.88;;;12.42;100.00
46922;BME280;44039;48.336;10.454;2022-09-12T06:28:46;95991.75;;;13.78;100.00
46922;BME280;44039;48.336;10.454;2022-09-12T06:31:35;95990.44;;;13.50;100.00
46922;BME280;44039;48.336;10.454;2022-09-12T06:34:23;95997.03;;;13.21;100.00
46922;BME280;44039;48.336;10.454;2022-09-12T06:37:10;95991.59;;;13.35;100.00
46922;BME280;44039;48.336;10.454;2022-09-12T06:39:57;95993.50;;;13.44;100.00
46922;BME280;44039;48.336;10.454;2022-09-12T06:42:44;95993.63;;;13.54;100.00
46922;BME280;44039;48.336;10.454;2022-09-12T06:45:31;96005.63;;;13.10;100.00
46922;BME280;44039;48.336;10.454;2022-09-12T06:48:18;95999.97;;;13.62;100.00
46922;BME280;44039;48.336;10.454;2022-09-12T06:51:10;96009.88;;;12.89;100.00
46922;BME280;44039;48.336;10.454;2022-09-12T06:53:57;96018.16;;;12.59;100.00
46922;BME280;44039;48.336;10.454;2022-09-12T06:56:44;96016.09;;;13.34;100.00
46922;BME280;44039;48.336;10.454;2022-09-12T06:59:31;95999.28;;;14.16;100.00
46922;BME280;44039;48.336;10.454;2022-09-12T07:02:18;96007.75;;;13.98;100.00
46922;BME280;44039;48.336;10.454;2022-09-12T07:05:06;95975.25;;;16.62;88.08
46922;BME280;44039;48.336;10.454;2022-09-12T07:07:53;95983.16;;;15.40;93.10
46922;BME280;44039;48.336;10.454;2022-09-12T07:10:40;96006.22;;;14.83;98.66
46922;BME280;44039;48.336;10.454;2022-09-12T07:13:27;95978.50;;;17.14;83.75
46922;BME280;44039;48.336;10.454;2022-09-12T07:16:15;95985.66;;;16.13;86.37
46922;BME280;44039;48.336;10.454;2022-09-12T07:19:06;96005.47;;;14.60;96.69
46922;BME280;44039;48.336;10.454;2022-09-12T07:21:54;95984.19;;;16.90;86.17
46922;BME280;44039;48.336;10.454;2022-09-12T07:24:44;95949.00;;;19.66;69.78
46922;BME280;44039;48.336;10.454;2022-09-12T07:27:31;95965.41;;;18.17;72.60
46922;BME280;44039;48.336;10.454;2022-09-12T07:30:18;95969.63;;;18.83;75.36
46922;BME280;44039;48.336;10.454;2022-09-12T07:33:05;95965.63;;;17.96;76.30
46922;BME280;44039;48.336;10.454;2022-09-12T07:35:53;95962.69;;;18.82;75.11
46922;BME280;44039;48.336;10.454;2022-09-12T07:38:40;95952.00;;;20.73;64.97
46922;BME280;44039;48.336;10.454;2022-09-12T07:41:30;95961.91;;;19.43;72.80
46922;BME280;44039;48.336;10.454;2022-09-12T07:44:18;95981.84;;;16.97;87.73
46922;BME280;44039;48.336;10.454;2022-09-12T07:47:05;95994.22;;;16.56;100.00
46922;BME280;44039;48.336;10.454;2022-09-12T07:49:52;95958.41;;;20.20;73.68
46922;BME280;44039;48.336;10.454;2022-09-12T07:52:39;95945.91;;;21.87;62.44
46922;BME280;44039;48.336;10.454;2022-09-12T07:55:26;95948.91;;;21.76;61.96
46922;BME280;44039;48.336;10.454;2022-09-12T07:58:13;95950.09;;;21.65;59.33
46922;BME280;44039;48.336;10.454;2022-09-12T08:01:04;95958.53;;;20.95;64.79
46922;BME280;44039;48.336;10.454;2022-09-12T08:03:58;95931.28;;;23.32;54.45
46922;BME280;44039;48.336;10.454;2022-09-12T08:06:45;95927.59;;;22.87;56.00
46922;BME280;44039;48.336;10.454;2022-09-12T08:09:32;95946.97;;;22.33;59.75
46922;BME280;44039;48.336;10.454;2022-09-12T08:12:19;95954.75;;;21.47;62.32
46922;BME280;44039;48.336;10.454;2022-09-12T08:15:07;95941.13;;;23.46;56.91
46922;BME280;44039;48.336;10.454;2022-09-12T08:17:54;95941.34;;;23.59;56.99
46922;BME280;44039;48.336;10.454;2022-09-12T08:20:41;95956.72;;;21.93;63.50
46922;BME280;44039;48.336;10.454;2022-09-12T08:23:29;95968.63;;;20.92;70.41
46922;BME280;44039;48.336;10.454;2022-09-12T08:26:16;95967.69;;;21.74;68.95
46922;BME280;44039;48.336;10.454;2022-09-12T08:29:03;95950.19;;;22.83;62.34
46922;BME280;44039;48.336;10.454;2022-09-12T08:31:50;95967.53;;;21.43;69.22
46922;BME280;44039;48.336;10.454;2022-09-12T08:34:42;95963.69;;;21.95;68.05
46922;BME280;44039;48.336;10.454;2022-09-12T08:37:30;95984.16;;;19.76;83.49
46922;BME280;44039;48.336;10.454;2022-09-12T08:40:17;95981.97;;;19.54;88.46
46922;BME280;44039;48.336;10.454;2022-09-12T08:46:18;96001.41;;;17.33;100.00
46922;BME280;44039;48.336;10.454;2022-09-12T08:49:10;96013.88;;;16.82;100.00
46922;BME280;44039;48.336;10.454;2022-09-12T08:52:18;96016.41;;;17.13;100.00
46922;BME280;44039;48.336;10.454;2022-09-12T08:58:17;96001.28;;;17.15;100.00
46922;BME280;44039;48.336;10.454;2022-09-12T09:01:31;96001.84;;;17.18;100.00
46922;BME280;44039;48.336;10.454;2022-09-12T09:10:32;95997.53;;;17.37;100.00
46922;BME280;44039;48.336;10.454;2022-09-12T09:16:43;95974.31;;;18.89;100.00
46922;BME280;44039;48.336;10.454;2022-09-12T09:19:36;95960.69;;;19.37;97.17
46922;BME280;44039;48.336;10.454;2022-09-12T09:25:55;95921.50;;;25.16;58.09
46922;BME280;44039;48.336;10.454;2022-09-12T09:28:49;95935.03;;;21.41;66.11
46922;BME280;44039;48.336;10.454;2022-09-12T09:31:38;95932.00;;;21.20;67.45
46922;BME280;44039;48.336;10.454;2022-09-12T09:34:29;95928.97;;;22.74;61.56
46922;BME280;44039;48.336;10.454;2022-09-12T09:37:27;95922.75;;;23.13;58.08
46922;BME280;44039;48.336;10.454;2022-09-12T09:40:41;95919.97;;;22.75;57.80
46922;BME280;44039;48.336;10.454;2022-09-12T09:43:32;95923.13;;;22.79;57.62
46922;BME280;44039;48.336;10.454;2022-09-12T09:46:19;95922.06;;;22.57;58.99
46922;BME280;44039;48.336;10.454;2022-09-12T09:49:08;95913.75;;;22.83;56.87
46922;BME280;44039;48.336;10.454;2022-09-12T09:51:58;95912.81;;;23.82;55.54
46922;BME280;44039;48.336;10.454;2022-09-12T09:54:51;95906.47;;;24.93;51.64
46922;BME280;44039;48.336;10.454;2022-09-12T09:57:42;95915.13;;;23.10;56.43
46922;BME280;44039;48.336;10.454;2022-09-12T10:00:32;95889.31;;;27.17;43.33
46922;BME280;44039;48.336;10.454;2022-09-12T10:04:00;95901.94;;;24.94;47.63
46922;BME280;44039;48.336;10.454;2022-09-12T10:06:39;95906.75;;;24.48;49.04
46922;BME280;44039;48.336;10.454;2022-09-12T10:09:34;95913.00;;;23.66;51.80
46922;BME280;44039;48.336;10.454;2022-09-12T10:12:28;95903.81;;;24.28;51.49
46922;BME280;44039;48.336;10.454;2022-09-12T10:15:24;95901.88;;;24.07;50.77
46922;BME280;44039;48.336;10.454;2022-09-12T10:18:32;95895.28;;;26.10;48.83
46922;BME280;44039;48.336;10.454;2022-09-12T10:21:40;95904.69;;;24.64;50.48
46922;BME280;44039;48.336;10.454;2022-09-12T10:24:41;95889.66;;;26.87;45.56
46922;BME280;44039;48.336;10.454;2022-09-12T10:27:34;95885.00;;;25.23;45.74
46922;BME280;44039;48.336;10.454;2022-09-12T10:30:22;95870.59;;;28.48;39.03
46922;BME280;44039;48.336;10.454;2022-09-12T10:33:14;95873.25;;;25.73;43.01
46922;BME280;44039;48.336;10.454;2022-09-12T10:36:01;95883.19;;;25.58;45.41
46922;BME280;44039;48.336;10.454;2022-09-12T10:38:51;95880.09;;;25.83;45.14
46922;BME280;44039;48.336;10.454;2022-09-12T10:41:40;95882.16;;;24.52;44.75
46922;BME280;44039;48.336;10.454;2022-09-12T10:44:32;95894.06;;;23.38;48.84
46922;BME280;44039;48.336;10.454;2022-09-12T10:47:22;95898.66;;;23.67;50.09
46922;BME280;44039;48.336;10.454;2022-09-12T10:50:42;95888.53;;;24.36;49.17
46922;BME280;44039;48.336;10.454;2022-09-12T10:53:47;95889.94;;;24.47;49.11
46922;BME280;44039;48.336;10.454;2022-09-12T10:56:54;95879.44;;;25.52;47.29
46922;BME280;44039;48.336;10.454;2022-09-12T11:00:02;95891.03;;;24.38;49.60
46922;BME280;44039;48.336;10.454;2022-09-12T11:03:08;95878.91;;;24.06;46.58
46922;BME280;44039;48.336;10.454;2022-09-12T11:06:00;95863.63;;;26.55;42.44
46922;BME280;44039;48.336;10.454;2022-09-12T11:09:11;95859.81;;;27.90;39.31
46922;BME280;44039;48.336;10.454;2022-09-12T11:32:30;95843.28;;;28.00;37.64
46922;BME280;44039;48.336;10.454;2022-09-12T11:35:19;95859.53;;;25.27;40.79
46922;BME280;44039;48.336;10.454;2022-09-12T11:41:08;95858.81;;;27.11;39.46
46922;BME280;44039;48.336;10.454;2022-09-12T11:44:02;95850.44;;;26.60;37.74
46922;BME280;44039;48.336;10.454;2022-09-12T11:46:52;95854.41;;;28.03;35.51
46922;BME280;44039;48.336;10.454;2022-09-12T11:49:44;95856.91;;;27.98;38.27
46922;BME280;44039;48.336;10.454;2022-09-12T11:52:36;95834.03;;;28.85;33.63
46922;BME280;44039;48.336;10.454;2022-09-12T11:55:30;95843.78;;;28.28;34.11
46922;BME280;44039;48.336;10.454;2022-09-12T11:58:22;95855.72;;;27.08;38.95
46922;BME280;44039;48.336;10.454;2022-09-12T12:01:16;95841.56;;;26.59;36.58
46922;BME280;44039;48.336;10.454;2022-09-12T12:04:14;95837.72;;;27.94;35.23
46922;BME280;44039;48.336;10.454;2022-09-12T12:07:06;95834.69;;;27.44;35.42
46922;BME280;44039;48.336;10.454;2022-09-12T12:09:55;95833.06;;;28.28;35.34
46922;BME280;44039;48.336;10.454;2022-09-12T12:12:42;95809.16;;;31.05;30.89
46922;BME280;44039;48.336;10.454;2022-09-12T12:15:30;95827.44;;;26.99;35.56
46922;BME280;44039;48.336;10.454;2022-09-12T12:18:25;95834.44;;;26.86;37.04
46922;BME280;44039;48.336;10.454;2022-09-12T12:24:25;95833.63;;;27.79;35.79
46922;BME280;44039;48.336;10.454;2022-09-12T12:36:37;95831.88;;;24.34;44.92
46922;BME280;44039;48.336;10.454;2022-09-12T12:48:14;95811.91;;;25.09;43.68
46922;BME280;44039;48.336;10.454;2022-09-12T12:57:54;95779.66;;;28.58;34.95
46922;BME280;44039;48.336;10.454;2022-09-12T13:00:42;95765.56;;;30.36;31.51
46922;BME280;44039;48.336;10.454;2022-09-12T13:03:32;95762.78;;;29.94;32.05
46922;BME280;44039;48.336;10.454;2022-09-12T13:06:38;95780.88;;;27.20;37.20
46922;BME280;44039;48.336;10.454;2022-09-12T13:12:32;95770.28;;;26.45;36.88
46922;BME280;44039;48.336;10.454;2022-09-12T13:15:49;95771.78;;;26.54;38.12
46922;BME280;44039;48.336;10.454;2022-09-12T13:18:48;95767.19;;;25.87;38.43
46922;BME280;44039;48.336;10.454;2022-09-12T13:21:35;95757.78;;;26.72;37.16
46922;BME280;44039;48.336;10.454;2022-09-12T13:24:22;95747.72;;;26.13;37.85
46922;BME280;44039;48.336;10.454;2022-09-12T13:27:17;95760.97;;;24.89;40.67
46922;BME280;44039;48.336;10.454;2022-09-12T13:30:12;95752.44;;;26.04;37.40
46922;BME280;44039;48.336;10.454;2022-09-12T13:33:23;95742.31;;;26.61;37.61
46922;BME280;44039;48.336;10.454;2022-09-12T13:39:47;95735.31;;;27.39;34.85
46922;BME280;44039;48.336;10.454;2022-09-12T13:45:25;95736.56;;;26.77;34.75
46922;BME280;44039;48.336;10.454;2022-09-12T13:48:19;95730.84;;;28.68;35.76
46922;BME280;44039;48.336;10.454;2022-09-12T13:51:20;95724.50;;;27.66;33.95
46922;BME280;44039;48.336;10.454;2022-09-12T13:54:15;95736.91;;;28.57;35.33
46922;BME280;44039;48.336;10.454;2022-09-12T14:00:17;95735.22;;;27.59;34.97
46922;BME280;44039;48.336;10.454;2022-09-12T14:03:31;95737.59;;;28.77;35.82
46922;BME280;44039;48.336;10.454;2022-09-12T14:06:50;95736.75;;;27.35;35.61
46922;BME280;44039;48.336;10.454;2022-09-12T14:09:42;95744.25;;;26.19;38.59
46922;BME280;44039;48.336;10.454;2022-09-12T14:12:37;95735.00;;;26.22;37.35
46922;BME280;44039;48.336;10.454;2022-09-12T14:15:29;95731.66;;;26.00;38.51
46922;BME280;44039;48.336;10.454;2022-09-12T14:18:28;95724.59;;;27.20;35.19
46922;BME280;44039;48.336;10.454;2022-09-12T14:24:16;95707.53;;;27.85;33.08
46922;BME280;44039;48.336;10.454;2022-09-12T14:27:03;95712.84;;;27.34;33.68
46922;BME280;44039;48.336;10.454;2022-09-12T14:30:29;95721.94;;;25.86;37.95
46922;BME280;44039;48.336;10.454;2022-09-12T14:33:18;95712.97;;;27.59;33.98
46922;BME280;44039;48.336;10.454;2022-09-12T14:36:14;95721.91;;;27.33;35.74
46922;BME280;44039;48.336;10.454;2022-09-12T14:39:06;95700.38;;;27.59;33.89
46922;BME280;44039;48.336;10.454;2022-09-12T14:42:16;95687.66;;;29.74;29.67
46922;BME280;44039;48.336;10.454;2022-09-12T14:45:14;95694.91;;;28.37;36.23
46922;BME280;44039;48.336;10.454;2022-09-12T14:48:02;95691.44;;;28.30;35.43
46922;BME280;44039;48.336;10.454;2022-09-12T14:50:51;95690.69;;;29.23;33.07
46922;BME280;44039;48.336;10.454;2022-09-12T14:53:46;95703.81;;;27.86;37.05
46922;BME280;44039;48.336;10.454;2022-09-12T14:56:55;95695.16;;;27.84;35.18
46922;BME280;44039;48.336;10.454;2022-09-12T14:59:43;95689.56;;;27.21;35.03
46922;BME280;44039;48.336;10.454;2022-09-12T15:02:30;95678.78;;;26.02;36.99
46922;BME280;44039;48.336;10.454;2022-09-12T15:05:20;95682.34;;;25.61;37.81
46922;BME280;44039;48.336;10.454;2022-09-12T15:08:13;95678.84;;;25.67;37.61
46922;BME280;44039;48.336;10.454;2022-09-12T15:11:05;95667.16;;;26.69;34.74
46922;BME280;44039;48.336;10.454;2022-09-12T15:13:52;95661.53;;;26.38;37.02
46922;BME280;44039;48.336;10.454;2022-09-12T15:16:39;95683.31;;;24.91;40.17
46922;BME280;44039;48.336;10.454;2022-09-12T15:19:26;95685.47;;;24.46;41.41
46922;BME280;44039;48.336;10.454;2022-09-12T15:22:22;95681.97;;;24.24;41.51
46922;BME280;44039;48.336;10.454;2022-09-12T15:25:12;95676.78;;;24.93;40.40
46922;BME280;44039;48.336;10.454;2022-09-12T15:27:59;95667.44;;;25.87;39.07
46922;BME280;44039;48.336;10.454;2022-09-12T15:30:48;95675.81;;;25.01;40.67
46922;BME280;44039;48.336;10.454;2022-09-12T15:33:36;95671.22;;;26.32;36.14
46922;BME280;44039;48.336;10.454;2022-09-12T15:36:24;95680.78;;;25.04;39.10
46922;BME280;44039;48.336;10.454;2022-09-12T15:39:11;95678.50;;;25.01;39.33
46922;BME280;44039;48.336;10.454;2022-09-12T15:41:59;95678.75;;;24.78;40.96
46922;BME280;44039;48.336;10.454;2022-09-12T15:44:46;95682.13;;;24.65;39.01
46922;BME280;44039;48.336;10.454;2022-09-12T15:47:33;95674.50;;;25.18;37.51
46922;BME280;44039;48.336;10.454;2022-09-12T15:50:20;95676.53;;;24.60;39.18
46922;BME280;44039;48.336;10.454;2022-09-12T15:53:12;95688.19;;;23.74;42.04
46922;BME280;44039;48.336;10.454;2022-09-12T15:56:01;95687.56;;;23.42;43.32
46922;BME280;44039;48.336;10.454;2022-09-12T15:58:48;95681.88;;;24.18;42.15
46922;BME280;44039;48.336;10.454;2022-09-12T16:01:45;95672.66;;;25.19;39.64
46922;BME280;44039;48.336;10.454;2022-09-12T16:04:33;95676.47;;;24.11;41.98
46922;BME280;44039;48.336;10.454;2022-09-12T16:07:20;95684.69;;;22.70;46.53
46922;BME280;44039;48.336;10.454;2022-09-12T16:10:08;95674.78;;;22.41;47.00
46922;BME280;44039;48.336;10.454;2022-09-12T16:12:59;95683.31;;;21.82;47.23
46922;BME280;44039;48.336;10.454;2022-09-12T16:15:46;95683.63;;;21.87;47.38
46922;BME280;44039;48.336;10.454;2022-09-12T16:18:33;95679.53;;;22.08;48.32
46922;BME280;44039;48.336;10.454;2022-09-12T16:21:20;95684.81;;;22.16;48.73
46922;BME280;44039;48.336;10.454;2022-09-12T16:24:07;95688.44;;;22.38;47.75
46922;BME280;44039;48.336;10.454;2022-09-12T16:26:54;95679.63;;;21.91;50.04
46922;BME280;44039;48.336;10.454;2022-09-12T16:29:46;95683.19;;;21.76;51.56
46922;BME280;44039;48.336;10.454;2022-09-12T16:32:34;95682.81;;;21.87;52.31
46922;BME280;44039;48.336;10.454;2022-09-12T16:35:21;95690.44;;;21.59;54.29
46922;BME280;44039;48.336;10.454;2022-09-12T16:38:08;95684.47;;;21.18;56.73
46922;BME280;44039;48.336;10.454;2022-09-12T16:41:02;95685.78;;;21.14;59.87
46922;BME280;44039;48.336;10.454;2022-09-12T16:43:50;95684.69;;;20.92;59.40
46922;BME280;44039;48.336;10.454;2022-09-12T16:46:37;95686.63;;;21.06;59.83